sensor_id;sensor_type;location;lat;lon;timestamp;P1;durP1;ratioP1;P2;durP2;ratioP2
9797;SDS011;4938;57.492;12.652;2022-08-21T00:02:03;1.02;;;0.98;;
9797;SDS011;4938;57.492;12.652;2022-08-21T00:04:59;0.70;;;0.70;;
9797;SDS011;4938;57.492;12.652;2022-08-21T00:07:46;0.80;;;0.80;;
9797;SDS011;4938;57.492;12.652;2022-08-21T00:10:33;0.77;;;0.77;;
9797;SDS011;4938;57.492;12.652;2022-08-21T00:13:20;0.70;;;0.70;;
9797;SDS011;4938;57.492;12.652;2022-08-21T00:16:07;1.07;;;0.97;;
9797;SDS011;4938;57.492;12.652;2022-08-21T00:18:56;0.50;;;0.50;;
9797;SDS011;4938;57.492;12.652;2022-08-21T00:21:43;0.60;;;0.60;;
9797;SDS011;4938;57.492;12.652;2022-08-21T00:24:30;0.53;;;0.53;;
9797;SDS011;4938;57.492;12.652;2022-08-21T00:27:17;0.50;;;0.50;;
9797;SDS011;4938;57.492;12.652;2022-08-21T00:30:04;0.70;;;0.70;;
9797;SDS011;4938;57.492;12.652;2022-08-21T00:32:52;0.70;;;0.70;;
9797;SDS011;4938;57.492;12.652;2022-08-21T00:35:42;0.80;;;0.80;;
9797;SDS011;4938;57.492;12.652;2022-08-21T00:38:29;0.60;;;0.60;;
9797;SDS011;4938;57.492;12.652;2022-08-21T00:41:17;0.50;;;0.50;;
9797;SDS011;4938;57.492;12.652;2022-08-21T00:44:04;0.70;;;0.60;;
9797;SDS011;4938;57.492;12.652;2022-08-21T00:46:52;0.97;;;0.80;;
9797;SDS011;4938;57.492;12.652;2022-08-21T00:49:39;0.97;;;0.70;;
9797;SDS011;4938;57.492;12.652;2022-08-21T00:52:28;0.83;;;0.70;;
9797;SDS011;4938;57.492;12.652;2022-08-21T00:55:17;0.80;;;0.70;;
9797;SDS011;4938;57.492;12.652;2022-08-21T00:58:06;2.00;;;0.80;;
9797;SDS011;4938;57.492;12.652;2022-08-21T01:00:55;1.10;;;1.00;;
9797;SDS011;4938;57.492;12.652;2022-08-21T01:03:44;0.93;;;0.70;;
9797;SDS011;4938;57.492;12.652;2022-08-21T01:06:31;0.93;;;0.70;;
9797;SDS011;4938;57.492;12.652;2022-08-21T01:09:20;0.60;;;0.60;;
9797;SDS011;4938;57.492;12.652;2022-08-21T01:12:07;0.57;;;0.57;;
9797;SDS011;4938;57.492;12.652;2022-08-21T01:14:55;0.57;;;0.57;;
9797;SDS011;4938;57.492;12.652;2022-08-21T01:17:43;0.80;;;0.80;;
9797;SDS011;4938;57.492;12.652;2022-08-21T01:20:30;0.60;;;0.60;;
9797;SDS011;4938;57.492;12.652;2022-08-21T01:23:19;0.57;;;0.57;;
9797;SDS011;4938;57.492;12.652;2022-08-21T01:26:06;1.17;;;0.60;;
9797;SDS011;4938;57.492;12.652;2022-08-21T01:28:54;0.60;;;0.60;;
9797;SDS011;4938;57.492;12.652;2022-08-21T01:31:46;1.13;;;0.90;;
9797;SDS011;4938;57.492;12.652;2022-08-21T01:34:33;0.83;;;0.60;;
9797;SDS011;4938;57.492;12.652;2022-08-21T01:37:23;0.53;;;0.53;;
9797;SDS011;4938;57.492;12.652;2022-08-21T01:40:12;0.60;;;0.60;;
9797;SDS011;4938;57.492;12.652;2022-08-21T01:43:01;0.60;;;0.60;;
9797;SDS011;4938;57.492;12.652;2022-08-21T01:45:48;0.50;;;0.50;;
9797;SDS011;4938;57.492;12.652;2022-08-21T01:48:36;1.00;;;0.67;;
9797;SDS011;4938;57.492;12.652;2022-08-21T01:51:24;0.73;;;0.70;;
9797;SDS011;4938;57.492;12.652;2022-08-21T01:54:11;0.50;;;0.50;;
9797;SDS011;4938;57.492;12.652;2022-08-21T01:57:00;0.80;;;0.80;;
9797;SDS011;4938;57.492;12.652;2022-08-21T01:59:47;1.63;;;0.50;;
9797;SDS011;4938;57.492;12.652;2022-08-21T02:02:34;0.60;;;0.60;;
9797;SDS011;4938;57.492;12.652;2022-08-21T02:05:21;0.70;;;0.70;;
9797;SDS011;4938;57.492;12.652;2022-08-21T02:08:08;0.80;;;0.70;;
9797;SDS011;4938;57.492;12.652;2022-08-21T02:10:55;0.70;;;0.70;;
9797;SDS011;4938;57.492;12.652;2022-08-21T02:13:43;0.60;;;0.60;;
9797;SDS011;4938;57.492;12.652;2022-08-21T02:16:30;0.80;;;0.60;;
9797;SDS011;4938;57.492;12.652;2022-08-21T02:19:17;0.50;;;0.50;;
9797;SDS011;4938;57.492;12.652;2022-08-21T02:22:04;0.70;;;0.70;;
9797;SDS011;4938;57.492;12.652;2022-08-21T02:24:51;0.73;;;0.73;;
9797;SDS011;4938;57.492;12.652;2022-08-21T02:27:39;0.50;;;0.50;;
9797;SDS011;4938;57.492;12.652;2022-08-21T02:30:29;0.57;;;0.50;;
9797;SDS011;4938;57.492;12.652;2022-08-21T02:33:18;0.60;;;0.60;;
9797;SDS011;4938;57.492;12.652;2022-08-21T02:36:06;0.50;;;0.50;;
9797;SDS011;4938;57.492;12.652;2022-08-21T02:38:54;1.47;;;0.60;;
9797;SDS011;4938;57.492;12.652;2022-08-21T02:41:41;0.40;;;0.40;;
9797;SDS011;4938;57.492;12.652;2022-08-21T02:44:28;0.50;;;0.50;;
9797;SDS011;4938;57.492;12.652;2022-08-21T02:47:17;0.60;;;0.60;;
9797;SDS011;4938;57.492;12.652;2022-08-21T02:50:05;0.50;;;0.50;;
9797;SDS011;4938;57.492;12.652;2022-08-21T02:52:53;0.67;;;0.67;;
9797;SDS011;4938;57.492;12.652;2022-08-21T02:55:40;0.50;;;0.50;;
9797;SDS011;4938;57.492;12.652;2022-08-21T02:58:28;0.87;;;0.87;;
9797;SDS011;4938;57.492;12.652;2022-08-21T03:01:16;0.63;;;0.60;;
9797;SDS011;4938;57.492;12.652;2022-08-21T03:04:06;0.67;;;0.67;;
9797;SDS011;4938;57.492;12.652;2022-08-21T03:06:53;0.40;;;0.40;;
9797;SDS011;4938;57.492;12.652;2022-08-21T03:09:40;0.60;;;0.60;;
9797;SDS011;4938;57.492;12.652;2022-08-21T03:12:27;0.50;;;0.50;;
9797;SDS011;4938;57.492;12.652;2022-08-21T03:15:15;0.60;;;0.60;;
9797;SDS011;4938;57.492;12.652;2022-08-21T03:18:04;0.60;;;0.60;;
9797;SDS011;4938;57.492;12.652;2022-08-21T03:20:53;0.43;;;0.43;;
9797;SDS011;4938;57.492;12.652;2022-08-21T03:23:40;0.77;;;0.47;;
9797;SDS011;4938;57.492;12.652;2022-08-21T03:26:28;0.87;;;0.87;;
9797;SDS011;4938;57.492;12.652;2022-08-21T03:29:15;0.90;;;0.70;;
9797;SDS011;4938;57.492;12.652;2022-08-21T03:32:02;0.60;;;0.60;;
9797;SDS011;4938;57.492;12.652;2022-08-21T03:34:49;0.47;;;0.47;;
9797;SDS011;4938;57.492;12.652;2022-08-21T03:37:37;0.50;;;0.50;;
9797;SDS011;4938;57.492;12.652;2022-08-21T03:40:24;0.53;;;0.53;;
9797;SDS011;4938;57.492;12.652;2022-08-21T03:43:11;0.90;;;0.90;;
9797;SDS011;4938;57.492;12.652;2022-08-21T03:45:58;0.60;;;0.60;;
9797;SDS011;4938;57.492;12.652;2022-08-21T03:48:47;1.60;;;0.87;;
9797;SDS011;4938;57.492;12.652;2022-08-21T03:51:34;0.67;;;0.57;;
9797;SDS011;4938;57.492;12.652;2022-08-21T03:54:22;0.70;;;0.70;;
9797;SDS011;4938;57.492;12.652;2022-08-21T03:57:10;0.60;;;0.60;;
9797;SDS011;4938;57.492;12.652;2022-08-21T03:59:57;0.50;;;0.50;;
9797;SDS011;4938;57.492;12.652;2022-08-21T04:02:44;1.70;;;0.70;;
9797;SDS011;4938;57.492;12.652;2022-08-21T04:05:32;0.40;;;0.40;;
9797;SDS011;4938;57.492;12.652;2022-08-21T04:08:19;0.47;;;0.47;;
9797;SDS011;4938;57.492;12.652;2022-08-21T04:11:08;1.03;;;0.90;;
9797;SDS011;4938;57.492;12.652;2022-08-21T04:13:56;0.50;;;0.50;;
9797;SDS011;4938;57.492;12.652;2022-08-21T04:16:43;0.67;;;0.67;;
9797;SDS011;4938;57.492;12.652;2022-08-21T04:19:31;0.60;;;0.60;;
9797;SDS011;4938;57.492;12.652;2022-08-21T04:22:18;0.70;;;0.70;;
9797;SDS011;4938;57.492;12.652;2022-08-21T04:25:05;0.50;;;0.50;;
9797;SDS011;4938;57.492;12.652;2022-08-21T04:27:54;0.50;;;0.50;;
9797;SDS011;4938;57.492;12.652;2022-08-21T04:30:41;0.63;;;0.63;;
9797;SDS011;4938;57.492;12.652;2022-08-21T04:33:29;0.40;;;0.40;;
9797;SDS011;4938;57.492;12.652;2022-08-21T04:36:16;0.53;;;0.53;;
9797;SDS011;4938;57.492;12.652;2022-08-21T04:39:03;0.80;;;0.80;;
9797;SDS011;4938;57.492;12.652;2022-08-21T04:41:50;0.80;;;0.43;;
9797;SDS011;4938;57.492;12.652;2022-08-21T04:44:38;0.40;;;0.40;;
9797;SDS011;4938;57.492;12.652;2022-08-21T04:47:26;0.60;;;0.50;;
9797;SDS011;4938;57.492;12.652;2022-08-21T04:50:13;0.80;;;0.80;;
9797;SDS011;4938;57.492;12.652;2022-08-21T04:53:00;0.53;;;0.53;;
9797;SDS011;4938;57.492;12.652;2022-08-21T04:55:47;0.70;;;0.70;;
9797;SDS011;4938;57.492;12.652;2022-08-21T04:58:35;1.30;;;0.70;;
9797;SDS011;4938;57.492;12.652;2022-08-21T05:01:25;0.93;;;0.70;;
9797;SDS011;4938;57.492;12.652;2022-08-21T05:04:15;1.03;;;0.50;;
9797;SDS011;4938;57.492;12.652;2022-08-21T05:07:10;0.60;;;0.60;;
9797;SDS011;4938;57.492;12.652;2022-08-21T05:10:02;0.60;;;0.60;;
9797;SDS011;4938;57.492;12.652;2022-08-21T05:12:50;0.70;;;0.70;;
9797;SDS011;4938;57.492;12.652;2022-08-21T05:15:37;0.60;;;0.60;;
9797;SDS011;4938;57.492;12.652;2022-08-21T05:18:25;0.67;;;0.43;;
9797;SDS011;4938;57.492;12.652;2022-08-21T05:21:12;0.50;;;0.50;;
9797;SDS011;4938;57.492;12.652;2022-08-21T05:23:59;0.83;;;0.70;;
9797;SDS011;4938;57.492;12.652;2022-08-21T05:26:46;0.50;;;0.50;;
9797;SDS011;4938;57.492;12.652;2022-08-21T05:29:33;0.50;;;0.50;;
9797;SDS011;4938;57.492;12.652;2022-08-21T05:32:20;0.60;;;0.60;;
9797;SDS011;4938;57.492;12.652;2022-08-21T05:35:09;0.80;;;0.60;;
9797;SDS011;4938;57.492;12.652;2022-08-21T05:37:56;0.57;;;0.57;;
9797;SDS011;4938;57.492;12.652;2022-08-21T05:40:43;0.50;;;0.50;;
9797;SDS011;4938;57.492;12.652;2022-08-21T05:43:31;0.50;;;0.50;;
9797;SDS011;4938;57.492;12.652;2022-08-21T05:46:21;0.50;;;0.50;;
9797;SDS011;4938;57.492;12.652;2022-08-21T05:49:08;1.60;;;0.60;;
9797;SDS011;4938;57.492;12.652;2022-08-21T05:51:56;0.52;;;0.50;;
9797;SDS011;4938;57.492;12.652;2022-08-21T05:54:43;0.55;;;0.50;;
9797;SDS011;4938;57.492;12.652;2022-08-21T05:57:30;0.57;;;0.57;;
9797;SDS011;4938;57.492;12.652;2022-08-21T06:00:17;0.60;;;0.52;;
9797;SDS011;4938;57.492;12.652;2022-08-21T06:03:04;0.60;;;0.60;;
9797;SDS011;4938;57.492;12.652;2022-08-21T06:05:57;0.75;;;0.70;;
9797;SDS011;4938;57.492;12.652;2022-08-21T06:08:46;0.63;;;0.52;;
9797;SDS011;4938;57.492;12.652;2022-08-21T06:11:33;0.88;;;0.50;;
9797;SDS011;4938;57.492;12.652;2022-08-21T06:14:20;0.50;;;0.50;;
9797;SDS011;4938;57.492;12.652;2022-08-21T06:17:08;0.60;;;0.60;;
9797;SDS011;4938;57.492;12.652;2022-08-21T06:19:56;0.40;;;0.40;;
9797;SDS011;4938;57.492;12.652;2022-08-21T06:22:43;0.50;;;0.50;;
9797;SDS011;4938;57.492;12.652;2022-08-21T06:25:32;0.60;;;0.60;;
9797;SDS011;4938;57.492;12.652;2022-08-21T06:28:19;0.60;;;0.60;;
9797;SDS011;4938;57.492;12.652;2022-08-21T06:31:09;0.55;;;0.55;;
9797;SDS011;4938;57.492;12.652;2022-08-21T06:33:58;0.47;;;0.47;;
9797;SDS011;4938;57.492;12.652;2022-08-21T06:36:45;0.52;;;0.52;;
9797;SDS011;4938;57.492;12.652;2022-08-21T06:39:32;0.60;;;0.60;;
9797;SDS011;4938;57.492;12.652;2022-08-21T06:42:20;0.73;;;0.73;;
9797;SDS011;4938;57.492;12.652;2022-08-21T06:45:08;0.65;;;0.65;;
9797;SDS011;4938;57.492;12.652;2022-08-21T06:47:55;0.73;;;0.73;;
9797;SDS011;4938;57.492;12.652;2022-08-21T06:50:42;0.50;;;0.50;;
9797;SDS011;4938;57.492;12.652;2022-08-21T06:53:29;0.68;;;0.68;;
9797;SDS011;4938;57.492;12.652;2022-08-21T06:56:16;0.57;;;0.57;;
9797;SDS011;4938;57.492;12.652;2022-08-21T06:59:04;0.73;;;0.73;;
9797;SDS011;4938;57.492;12.652;2022-08-21T07:01:52;0.77;;;0.70;;
9797;SDS011;4938;57.492;12.652;2022-08-21T07:04:38;0.65;;;0.65;;
9797;SDS011;4938;57.492;12.652;2022-08-21T07:07:25;1.05;;;1.02;;
9797;SDS011;4938;57.492;12.652;2022-08-21T07:10:13;0.60;;;0.60;;
9797;SDS011;4938;57.492;12.652;2022-08-21T07:13:00;0.75;;;0.75;;
9797;SDS011;4938;57.492;12.652;2022-08-21T07:15:48;1.23;;;1.10;;
9797;SDS011;4938;57.492;12.652;2022-08-21T07:18:35;0.73;;;0.73;;
9797;SDS011;4938;57.492;12.652;2022-08-21T07:21:22;0.60;;;0.60;;
9797;SDS011;4938;57.492;12.652;2022-08-21T07:24:09;0.82;;;0.82;;
9797;SDS011;4938;57.492;12.652;2022-08-21T07:26:56;0.73;;;0.73;;
9797;SDS011;4938;57.492;12.652;2022-08-21T07:29:43;0.80;;;0.80;;
9797;SDS011;4938;57.492;12.652;2022-08-21T07:32:31;0.77;;;0.77;;
9797;SDS011;4938;57.492;12.652;2022-08-21T07:35:19;0.70;;;0.70;;
9797;SDS011;4938;57.492;12.652;2022-08-21T07:38:06;1.75;;;0.80;;
9797;SDS011;4938;57.492;12.652;2022-08-21T07:40:54;0.68;;;0.68;;
9797;SDS011;4938;57.492;12.652;2022-08-21T07:43:44;0.50;;;0.50;;
9797;SDS011;4938;57.492;12.652;2022-08-21T07:46:31;0.75;;;0.75;;
9797;SDS011;4938;57.492;12.652;2022-08-21T07:49:20;0.65;;;0.65;;
9797;SDS011;4938;57.492;12.652;2022-08-21T07:52:07;0.70;;;0.70;;
9797;SDS011;4938;57.492;12.652;2022-08-21T07:54:54;0.60;;;0.60;;
9797;SDS011;4938;57.492;12.652;2022-08-21T07:57:41;0.50;;;0.50;;
9797;SDS011;4938;57.492;12.652;2022-08-21T08:00:28;0.88;;;0.70;;
9797;SDS011;4938;57.492;12.652;2022-08-21T08:03:16;0.60;;;0.60;;
9797;SDS011;4938;57.492;12.652;2022-08-21T08:06:05;0.68;;;0.68;;
9797;SDS011;4938;57.492;12.652;2022-08-21T08:08:57;0.63;;;0.63;;
9797;SDS011;4938;57.492;12.652;2022-08-21T08:11:44;0.40;;;0.40;;
9797;SDS011;4938;57.492;12.652;2022-08-21T08:14:31;0.70;;;0.70;;
9797;SDS011;4938;57.492;12.652;2022-08-21T08:17:18;0.50;;;0.50;;
9797;SDS011;4938;57.492;12.652;2022-08-21T08:20:09;0.70;;;0.70;;
9797;SDS011;4938;57.492;12.652;2022-08-21T08:23:02;0.73;;;0.55;;
9797;SDS011;4938;57.492;12.652;2022-08-21T08:25:49;0.52;;;0.52;;
9797;SDS011;4938;57.492;12.652;2022-08-21T08:28:36;0.60;;;0.50;;
9797;SDS011;4938;57.492;12.652;2022-08-21T08:31:23;0.70;;;0.70;;
9797;SDS011;4938;57.492;12.652;2022-08-21T08:34:11;0.77;;;0.77;;
9797;SDS011;4938;57.492;12.652;2022-08-21T08:36:57;0.80;;;0.80;;
9797;SDS011;4938;57.492;12.652;2022-08-21T08:39:46;0.77;;;0.77;;
9797;SDS011;4938;57.492;12.652;2022-08-21T08:42:34;0.75;;;0.75;;
9797;SDS011;4938;57.492;12.652;2022-08-21T08:45:22;0.90;;;0.80;;
9797;SDS011;4938;57.492;12.652;2022-08-21T08:48:13;0.63;;;0.50;;
9797;SDS011;4938;57.492;12.652;2022-08-21T08:51:05;0.60;;;0.60;;
9797;SDS011;4938;57.492;12.652;2022-08-21T08:53:55;2.00;;;0.77;;
9797;SDS011;4938;57.492;12.652;2022-08-21T08:56:48;0.70;;;0.70;;
9797;SDS011;4938;57.492;12.652;2022-08-21T08:59:39;0.75;;;0.70;;
9797;SDS011;4938;57.492;12.652;2022-08-21T09:02:27;0.75;;;0.65;;
9797;SDS011;4938;57.492;12.652;2022-08-21T09:05:19;0.80;;;0.80;;
9797;SDS011;4938;57.492;12.652;2022-08-21T09:08:20;0.65;;;0.65;;
9797;SDS011;4938;57.492;12.652;2022-08-21T09:11:21;0.60;;;0.60;;
9797;SDS011;4938;57.492;12.652;2022-08-21T09:14:16;0.80;;;0.70;;
9797;SDS011;4938;57.492;12.652;2022-08-21T09:17:15;0.60;;;0.60;;
9797;SDS011;4938;57.492;12.652;2022-08-21T09:20:16;0.85;;;0.50;;
9797;SDS011;4938;57.492;12.652;2022-08-21T09:23:22;0.50;;;0.50;;
9797;SDS011;4938;57.492;12.652;2022-08-21T09:26:21;0.68;;;0.68;;
9797;SDS011;4938;57.492;12.652;2022-08-21T09:29:11;1.08;;;1.05;;
9797;SDS011;4938;57.492;12.652;2022-08-21T09:32:00;0.82;;;0.82;;
9797;SDS011;4938;57.492;12.652;2022-08-21T09:34:57;0.80;;;0.80;;
9797;SDS011;4938;57.492;12.652;2022-08-21T09:37:48;0.73;;;0.60;;
9797;SDS011;4938;57.492;12.652;2022-08-21T09:40:39;1.00;;;0.80;;
9797;SDS011;4938;57.492;12.652;2022-08-21T09:43:28;1.25;;;0.90;;
9797;SDS011;4938;57.492;12.652;2022-08-21T09:46:20;0.80;;;0.80;;
9797;SDS011;4938;57.492;12.652;2022-08-21T09:49:09;0.68;;;0.60;;
9797;SDS011;4938;57.492;12.652;2022-08-21T09:51:56;0.70;;;0.70;;
9797;SDS011;4938;57.492;12.652;2022-08-21T09:54:45;1.10;;;0.77;;
9797;SDS011;4938;57.492;12.652;2022-08-21T09:57:32;0.73;;;0.73;;
9797;SDS011;4938;57.492;12.652;2022-08-21T10:00:25;0.63;;;0.63;;
9797;SDS011;4938;57.492;12.652;2022-08-21T10:03:16;0.82;;;0.80;;
9797;SDS011;4938;57.492;12.652;2022-08-21T10:06:07;0.93;;;0.93;;
9797;SDS011;4938;57.492;12.652;2022-08-21T10:09:03;0.68;;;0.68;;
9797;SDS011;4938;57.492;12.652;2022-08-21T10:11:53;0.73;;;0.70;;
9797;SDS011;4938;57.492;12.652;2022-08-21T10:14:54;0.70;;;0.70;;
9797;SDS011;4938;57.492;12.652;2022-08-21T10:17:54;0.70;;;0.70;;
9797;SDS011;4938;57.492;12.652;2022-08-21T10:20:49;1.73;;;1.00;;
9797;SDS011;4938;57.492;12.652;2022-08-21T10:23:48;0.90;;;0.90;;
9797;SDS011;4938;57.492;12.652;2022-08-21T10:26:45;0.90;;;0.90;;
9797;SDS011;4938;57.492;12.652;2022-08-21T10:29:40;0.93;;;0.93;;
9797;SDS011;4938;57.492;12.652;2022-08-21T10:32:39;0.77;;;0.77;;
9797;SDS011;4938;57.492;12.652;2022-08-21T10:35:37;0.82;;;0.82;;
9797;SDS011;4938;57.492;12.652;2022-08-21T10:38:49;1.00;;;1.00;;
9797;SDS011;4938;57.492;12.652;2022-08-21T10:41:48;0.90;;;0.85;;
9797;SDS011;4938;57.492;12.652;2022-08-21T10:44:58;0.80;;;0.80;;
9797;SDS011;4938;57.492;12.652;2022-08-21T10:47:56;0.85;;;0.85;;
9797;SDS011;4938;57.492;12.652;2022-08-21T10:50:48;0.88;;;0.88;;
9797;SDS011;4938;57.492;12.652;2022-08-21T10:53:45;1.10;;;1.02;;
9797;SDS011;4938;57.492;12.652;2022-08-21T10:56:41;1.15;;;1.15;;
9797;SDS011;4938;57.492;12.652;2022-08-21T10:59:31;0.95;;;0.95;;
9797;SDS011;4938;57.492;12.652;2022-08-21T11:02:26;0.95;;;0.95;;
9797;SDS011;4938;57.492;12.652;2022-08-21T11:05:19;0.90;;;0.90;;
9797;SDS011;4938;57.492;12.652;2022-08-21T11:08:11;1.02;;;0.95;;
9797;SDS011;4938;57.492;12.652;2022-08-21T11:11:05;1.10;;;1.10;;
9797;SDS011;4938;57.492;12.652;2022-08-21T11:13:58;0.85;;;0.85;;
9797;SDS011;4938;57.492;12.652;2022-08-21T11:16:49;1.33;;;1.20;;
9797;SDS011;4938;57.492;12.652;2022-08-21T11:19:45;1.08;;;0.98;;
9797;SDS011;4938;57.492;12.652;2022-08-21T11:22:37;0.90;;;0.90;;
9797;SDS011;4938;57.492;12.652;2022-08-21T11:25:29;0.80;;;0.80;;
9797;SDS011;4938;57.492;12.652;2022-08-21T11:28:23;1.33;;;1.13;;
9797;SDS011;4938;57.492;12.652;2022-08-21T11:31:16;1.05;;;0.77;;
9797;SDS011;4938;57.492;12.652;2022-08-21T11:34:18;1.15;;;1.05;;
9797;SDS011;4938;57.492;12.652;2022-08-21T11:37:16;0.93;;;0.70;;
9797;SDS011;4938;57.492;12.652;2022-08-21T11:40:10;1.05;;;0.95;;
9797;SDS011;4938;57.492;12.652;2022-08-21T11:43:11;0.93;;;0.80;;
9797;SDS011;4938;57.492;12.652;2022-08-21T11:46:11;0.80;;;0.80;;
9797;SDS011;4938;57.492;12.652;2022-08-21T11:49:12;0.90;;;0.90;;
9797;SDS011;4938;57.492;12.652;2022-08-21T11:52:12;0.80;;;0.80;;
9797;SDS011;4938;57.492;12.652;2022-08-21T11:55:05;1.20;;;0.98;;
9797;SDS011;4938;57.492;12.652;2022-08-21T11:57:57;0.70;;;0.70;;
9797;SDS011;4938;57.492;12.652;2022-08-21T12:00:49;0.82;;;0.82;;
9797;SDS011;4938;57.492;12.652;2022-08-21T12:03:42;0.80;;;0.80;;
9797;SDS011;4938;57.492;12.652;2022-08-21T12:06:41;2.38;;;0.90;;
9797;SDS011;4938;57.492;12.652;2022-08-21T12:09:31;1.05;;;1.02;;
9797;SDS011;4938;57.492;12.652;2022-08-21T12:12:23;1.00;;;1.00;;
9797;SDS011;4938;57.492;12.652;2022-08-21T12:15:14;1.13;;;0.80;;
9797;SDS011;4938;57.492;12.652;2022-08-21T12:18:19;1.10;;;0.82;;
9797;SDS011;4938;57.492;12.652;2022-08-21T12:21:20;0.80;;;0.80;;
9797;SDS011;4938;57.492;12.652;2022-08-21T12:24:15;1.23;;;1.08;;
9797;SDS011;4938;57.492;12.652;2022-08-21T12:27:13;0.65;;;0.65;;
9797;SDS011;4938;57.492;12.652;2022-08-21T12:30:22;0.80;;;0.80;;
9797;SDS011;4938;57.492;12.652;2022-08-21T12:33:20;0.90;;;0.90;;
9797;SDS011;4938;57.492;12.652;2022-08-21T12:36:12;0.77;;;0.75;;
9797;SDS011;4938;57.492;12.652;2022-08-21T12:39:04;2.40;;;0.85;;
9797;SDS011;4938;57.492;12.652;2022-08-21T12:42:00;1.10;;;0.90;;
9797;SDS011;4938;57.492;12.652;2022-08-21T12:44:54;1.35;;;1.08;;
9797;SDS011;4938;57.492;12.652;2022-08-21T12:47:48;1.70;;;1.13;;
9797;SDS011;4938;57.492;12.652;2022-08-21T12:50:40;0.93;;;0.93;;
9797;SDS011;4938;57.492;12.652;2022-08-21T12:53:31;1.60;;;1.50;;
9797;SDS011;4938;57.492;12.652;2022-08-21T12:56:24;1.08;;;0.98;;
9797;SDS011;4938;57.492;12.652;2022-08-21T12:59:12;1.17;;;1.08;;
9797;SDS011;4938;57.492;12.652;2022-08-21T13:01:59;1.17;;;1.08;;
9797;SDS011;4938;57.492;12.652;2022-08-21T13:04:50;1.75;;;1.13;;
9797;SDS011;4938;57.492;12.652;2022-08-21T13:07:43;1.88;;;1.08;;
9797;SDS011;4938;57.492;12.652;2022-08-21T13:10:32;1.42;;;1.30;;
9797;SDS011;4938;57.492;12.652;2022-08-21T13:13:24;1.30;;;1.15;;
9797;SDS011;4938;57.492;12.652;2022-08-21T13:16:12;1.60;;;1.50;;
9797;SDS011;4938;57.492;12.652;2022-08-21T13:19:00;1.67;;;1.58;;
9797;SDS011;4938;57.492;12.652;2022-08-21T13:21:50;1.65;;;1.35;;
9797;SDS011;4938;57.492;12.652;2022-08-21T13:24:38;1.35;;;1.25;;
9797;SDS011;4938;57.492;12.652;2022-08-21T13:27:26;1.45;;;1.35;;
9797;SDS011;4938;57.492;12.652;2022-08-21T13:30:19;1.38;;;1.27;;
9797;SDS011;4938;57.492;12.652;2022-08-21T13:33:07;1.35;;;1.25;;
9797;SDS011;4938;57.492;12.652;2022-08-21T13:35:57;1.45;;;1.35;;
9797;SDS011;4938;57.492;12.652;2022-08-21T13:38:50;1.70;;;1.60;;
9797;SDS011;4938;57.492;12.652;2022-08-21T13:41:38;1.52;;;1.42;;
9797;SDS011;4938;57.492;12.652;2022-08-21T13:44:33;1.90;;;1.60;;
9797;SDS011;4938;57.492;12.652;2022-08-21T13:47:24;2.28;;;1.38;;
9797;SDS011;4938;57.492;12.652;2022-08-21T13:50:12;1.77;;;1.60;;
9797;SDS011;4938;57.492;12.652;2022-08-21T13:53:03;3.00;;;1.50;;
9797;SDS011;4938;57.492;12.652;2022-08-21T13:55:52;2.28;;;1.90;;
9797;SDS011;4938;57.492;12.652;2022-08-21T13:58:41;1.67;;;1.58;;
9797;SDS011;4938;57.492;12.652;2022-08-21T14:01:30;2.15;;;1.95;;
9797;SDS011;4938;57.492;12.652;2022-08-21T14:04:21;2.08;;;1.88;;
9797;SDS011;4938;57.492;12.652;2022-08-21T14:07:14;2.63;;;1.90;;
9797;SDS011;4938;57.492;12.652;2022-08-21T14:10:04;2.20;;;1.98;;
9797;SDS011;4938;57.492;12.652;2022-08-21T14:12:54;2.17;;;1.83;;
9797;SDS011;4938;57.492;12.652;2022-08-21T14:15:43;2.70;;;2.25;;
9797;SDS011;4938;57.492;12.652;2022-08-21T14:18:45;2.92;;;1.75;;
9797;SDS011;4938;57.492;12.652;2022-08-21T14:21:36;2.67;;;1.88;;
9797;SDS011;4938;57.492;12.652;2022-08-21T14:24:25;2.33;;;2.13;;
9797;SDS011;4938;57.492;12.652;2022-08-21T14:27:16;2.42;;;1.90;;
9797;SDS011;4938;57.492;12.652;2022-08-21T14:30:08;3.78;;;2.35;;
9797;SDS011;4938;57.492;12.652;2022-08-21T14:32:57;3.20;;;2.20;;
9797;SDS011;4938;57.492;12.652;2022-08-21T14:35:45;2.50;;;2.00;;
9797;SDS011;4938;57.492;12.652;2022-08-21T14:38:34;2.45;;;2.10;;
9797;SDS011;4938;57.492;12.652;2022-08-21T14:41:24;2.15;;;1.95;;
9797;SDS011;4938;57.492;12.652;2022-08-21T14:44:13;2.22;;;1.63;;
9797;SDS011;4938;57.492;12.652;2022-08-21T14:47:00;1.83;;;1.70;;
9797;SDS011;4938;57.492;12.652;2022-08-21T14:49:47;3.03;;;2.15;;
9797;SDS011;4938;57.492;12.652;2022-08-21T14:52:35;2.13;;;1.92;;
9797;SDS011;4938;57.492;12.652;2022-08-21T14:55:24;2.13;;;1.92;;
9797;SDS011;4938;57.492;12.652;2022-08-21T14:58:12;2.45;;;1.70;;
9797;SDS011;4938;57.492;12.652;2022-08-21T15:00:59;2.22;;;2.03;;
9797;SDS011;4938;57.492;12.652;2022-08-21T15:03:49;2.50;;;2.08;;
9797;SDS011;4938;57.492;12.652;2022-08-21T15:06:36;2.28;;;2.03;;
9797;SDS011;4938;57.492;12.652;2022-08-21T15:09:23;1.73;;;1.63;;
9797;SDS011;4938;57.492;12.652;2022-08-21T15:12:12;2.83;;;2.10;;
9797;SDS011;4938;57.492;12.652;2022-08-21T15:15:00;2.40;;;1.90;;
9797;SDS011;4938;57.492;12.652;2022-08-21T15:17:47;3.10;;;1.98;;
9797;SDS011;4938;57.492;12.652;2022-08-21T15:20:34;2.22;;;2.03;;
9797;SDS011;4938;57.492;12.652;2022-08-21T15:23:22;1.83;;;1.73;;
9797;SDS011;4938;57.492;12.652;2022-08-21T15:26:09;2.30;;;1.70;;
9797;SDS011;4938;57.492;12.652;2022-08-21T15:28:57;1.52;;;1.40;;
9797;SDS011;4938;57.492;12.652;2022-08-21T15:31:49;2.20;;;2.00;;
9797;SDS011;4938;57.492;12.652;2022-08-21T15:34:38;1.83;;;1.73;;
9797;SDS011;4938;57.492;12.652;2022-08-21T15:37:25;1.70;;;1.55;;
9797;SDS011;4938;57.492;12.652;2022-08-21T15:40:12;1.83;;;1.60;;
9797;SDS011;4938;57.492;12.652;2022-08-21T15:43:00;2.28;;;1.90;;
9797;SDS011;4938;57.492;12.652;2022-08-21T15:45:50;1.83;;;1.65;;
9797;SDS011;4938;57.492;12.652;2022-08-21T15:48:37;2.28;;;1.83;;
9797;SDS011;4938;57.492;12.652;2022-08-21T15:51:24;1.90;;;1.52;;
9797;SDS011;4938;57.492;12.652;2022-08-21T15:54:11;1.63;;;1.40;;
9797;SDS011;4938;57.492;12.652;2022-08-21T15:56:58;1.60;;;1.50;;
9797;SDS011;4938;57.492;12.652;2022-08-21T15:59:45;1.33;;;1.23;;
9797;SDS011;4938;57.492;12.652;2022-08-21T16:02:36;1.58;;;1.48;;
9797;SDS011;4938;57.492;12.652;2022-08-21T16:05:23;1.50;;;1.40;;
9797;SDS011;4938;57.492;12.652;2022-08-21T16:08:10;2.40;;;1.40;;
9797;SDS011;4938;57.492;12.652;2022-08-21T16:10:57;1.50;;;1.40;;
9797;SDS011;4938;57.492;12.652;2022-08-21T16:13:46;1.50;;;1.30;;
9797;SDS011;4938;57.492;12.652;2022-08-21T16:16:34;1.58;;;1.40;;
9797;SDS011;4938;57.492;12.652;2022-08-21T16:19:23;2.20;;;1.38;;
9797;SDS011;4938;57.492;12.652;2022-08-21T16:22:12;1.33;;;1.23;;
9797;SDS011;4938;57.492;12.652;2022-08-21T16:24:59;1.50;;;1.17;;
9797;SDS011;4938;57.492;12.652;2022-08-21T16:27:46;1.80;;;1.70;;
9797;SDS011;4938;57.492;12.652;2022-08-21T16:30:37;1.38;;;1.27;;
9797;SDS011;4938;57.492;12.652;2022-08-21T16:33:26;1.48;;;1.33;;
9797;SDS011;4938;57.492;12.652;2022-08-21T16:36:19;1.50;;;1.40;;
9797;SDS011;4938;57.492;12.652;2022-08-21T16:39:07;1.30;;;1.20;;
9797;SDS011;4938;57.492;12.652;2022-08-21T16:41:54;1.40;;;1.30;;
9797;SDS011;4938;57.492;12.652;2022-08-21T16:44:41;1.27;;;1.17;;
9797;SDS011;4938;57.492;12.652;2022-08-21T16:47:28;1.73;;;1.15;;
9797;SDS011;4938;57.492;12.652;2022-08-21T16:50:18;1.50;;;1.40;;
9797;SDS011;4938;57.492;12.652;2022-08-21T16:53:08;1.83;;;1.30;;
9797;SDS011;4938;57.492;12.652;2022-08-21T16:55:55;1.00;;;1.00;;
9797;SDS011;4938;57.492;12.652;2022-08-21T16:58:43;1.38;;;1.17;;
9797;SDS011;4938;57.492;12.652;2022-08-21T17:01:32;1.48;;;1.38;;
9797;SDS011;4938;57.492;12.652;2022-08-21T17:04:20;2.72;;;1.70;;
9797;SDS011;4938;57.492;12.652;2022-08-21T17:07:07;1.40;;;1.30;;
9797;SDS011;4938;57.492;12.652;2022-08-21T17:09:55;2.63;;;1.65;;
9797;SDS011;4938;57.492;12.652;2022-08-21T17:12:43;1.38;;;1.27;;
9797;SDS011;4938;57.492;12.652;2022-08-21T17:15:36;1.15;;;1.10;;
9797;SDS011;4938;57.492;12.652;2022-08-21T17:18:24;1.40;;;1.30;;